This is the latest recevied weather packets stored in our database for station/object KC6UTR. If no packets are shown the sender has not sent any weather packets the latest 10 day(s).
| Time | Temp. | Humidity | Pressure | Rain* | Wind** | Luminosity | Snow |
|---|---|---|---|---|---|---|---|
| 1777350616 | 12.22° C | 26% | 1015.4 hPa | 0 mm | - | - | - |
| 1777350016 | 12.78° C | 25% | 1015.3 hPa | 0 mm | - | - | - |
| 1777349416 | 12.78° C | 25% | 1015.2 hPa | 0 mm | - | - | - |
| 1777344616 | 14.44° C | 22% | 1013.1 hPa | 0 mm | - | - | - |
| 1777342216 | 15.56° C | 20% | 1012.2 hPa | 0 mm | - | - | - |
| 1777341616 | 15.56° C | 19% | 1012 hPa | 0 mm | - | - | - |
| 1777339216 | 17.22° C | 19% | 1011.2 hPa | 0 mm | - | - | - |
| 1777338036 | 17.78° C | 18% | 1011.4 hPa | 0 mm | - | - | - |
| 1777335016 | 18.89° C | 16% | 1011.7 hPa | 0 mm | - | - | - |
| 1777332616 | 18.89° C | 15% | 1011.8 hPa | 0 mm | - | - | - |
| 1777326015 | 20° C | 15% | 1013.1 hPa | 0 mm | - | - | - |
| 1777323635 | 19.44° C | 15% | 1013.2 hPa | 0 mm | - | - | - |
| 1777316417 | 17.78° C | 25% | 1014.5 hPa | 0 mm | - | - | - |
| 1777315217 | 18.33° C | 25% | 1015.2 hPa | 0 mm | - | - | - |
| 1777314617 | 17.78° C | 27% | 1015.4 hPa | 0 mm | - | - | - |
| 1777310457 | 16.11° C | 30% | 1015.2 hPa | 0 mm | - | - | - |
| 1777300237 | 10.56° C | 50% | 1013.9 hPa | 0 mm | - | - | - |
| 1777296616 | 6.67° C | 68% | 1012.3 hPa | 0 mm | - | - | - |
| 1777295416 | 5° C | 73% | 1011.5 hPa | 0 mm | - | - | - |
| 1777289416 | 5.56° C | 72% | 1011.7 hPa | 0 mm | - | - | - |
| 1777284616 | 6.11° C | 66% | 1011.2 hPa | 0 mm | - | - | - |
| 1777282236 | 7.22° C | 64% | 1011.4 hPa | 0 mm | - | - | - |
| 1777281616 | 7.78° C | 64% | 1011.4 hPa | 0 mm | - | - | - |
| 1777281036 | 7.78° C | 63% | 1011.4 hPa | 0 mm | - | - | - |
| 1777278616 | 8.89° C | 60% | 1011.8 hPa | 0 mm | - | - | - |
* Rain latest hour (hover to see other rain measurements)
** Current wind speed in m/s (hover to see current wind gust speed)